aviador You're here:

LFMV Decoded Metar

AVIGNON in FRANCE
Report Time2017-08-21 23:30:00
UTC Time2017-08-21 23:56:32
Flight Rules vfr VFR
WindVRB at 02 kt
Visibility9999 m
Phenomena:N/A
Clouds:N/A
Expected CloudBase > 3,600 ft AGL from Temp-Dew spread
CeilingNone
Temp20°C (ISA +5)
Dew Point11°C (56% RH)
AAT19.6°C
QNH1017 hPa
Density Alt781 ft
Elevation125 ft
Report Wrong Elevation
Raw Report
LFMV 212330Z AUTO VRB02KT CAVOK 20/11 Q1017=

Extra information for LFMV:More info

Metar Taf Metar & Taf Last 4 Metars F.Rules Stats Wind Profile Meteogram Temp Stats Airport Information Weather charts Add Link Nearby VenuesMetar ALERT Operation Metar Decoded Social comments